Vashon, WA

11:09 AM PDT on September 30, 2014 (GMT -0700)
Renton Municipal | Change Station
CLOSE
Current Station
Airport
Location: Renton,
Elevation: 30 ft
Nearby Weather Stations

Elev 30 ft 47.49 °N, 122.22 °W | Updated 12 minutes ago

Mostly Cloudy
Mostly Cloudy
61 °F
Feels Like 61 °F
N
7
Wind Variable Wind from South

Today
High -- | Low -- °F
--% Chance of Precip.
Yesterday
High -- | Low -- °F
Precip. -- in
7:07 AM 6:51 PM
Waxing Crescent, 38% visible
Pressure 30.09 in
Visibility 10.0 miles
Clouds Scattered Clouds 2400 ft
Mostly Cloudy 7500 ft
Dew Point 51 °F
Humidity 70%
Rainfall 0.00 in
Snow Depth 0 in , 0 in , 0 in
UV 2 out of 12
Pollen .40 out of 12
Air Quality Not available.
Flu Activity Not available.
SPECI KRNT 301757Z 18006KT 10SM SCT024 BKN075 16/11 A3009 RMK AO2 T01610106

More Conditions Fewer Conditions

Pressure 30.09 in
Visibility 10.0 miles
Clouds Scattered Clouds 2400 ft
Mostly Cloudy 7500 ft
Dew Point 51 °F
Humidity 70%
Rainfall 0.00 in
Snow Depth 0 in , 0 in , 0 in
UV 2 out of 12
Pollen .40 out of 12
Air Quality Not available.
Flu Activity Not available.
SPECI KRNT 301757Z 18006KT 10SM SCT024 BKN075 16/11 A3009 RMK AO2 T01610106

More Conditions Fewer Conditions

10-Day Weather Forecast

Almanac

Astronomy

Sep. 30, 2014 Rise Set
Actual Time 7:07 AM PDT 6:51 PM PDT
Civil Twilight 6:37 AM PDT 7:21 PM PDT
Nautical Twilight 6:01 AM PDT 7:57 PM PDT
Astronomical Twilight 5:24 AM PDT 8:33 PM PDT
Moon 1:39 PM PDT 11:08 PM PDT
Length of Visible Light 12h 44m
Length of Day
11h 43m
Tomorrow will be 3m 22s shorter.
Waxing Crescent, 38% of the Moon is Illuminated
Today
Waxing Crescent
Oct 1
First Quarter
Oct 8
Full
Oct 15
Last Quarter
Oct 23
New

Today's Extremes

State Highs State Lows

Community

WunderPhotos

Upload Photos

1,757,710 photos uploaded!

Nearby

Air Quality

  Air Quality AQ Index Pollutant
Tuesday Good
PM2.5
Wednesday Good
PM2.5
Thursday Good
PM2.5
Friday Good
PM2.5
Saturday Good
PM2.5

Snow Depth

Station Depth Elevation
White Pass E.S. 0 in 4500 ft
Alpine Meadows 0 in 3500 ft
Morse Lake 0 in 5400 ft
Lost Horse 0 in 5000 ft
Trough 0 in 5300 ft

Earthquake Activity

City Distance Mag. Time & Date
No recent earthquake activity has been reported nearby.
Minimum magnitude displayed is 2.5.

Coastal Water Temperatures

Place Temperature
Port Townsend, WA 52.0 °F
Seattle, WA 55.0 °F
Friday Harbor, WA 51.1 °F
Tacoma, WA 55.0 °F

Nearby Weather Stations